createdAt,value
2019-04-11T00:01:19.672Z,99.90
2019-04-11T00:03:51.459Z,99.90
2019-04-11T00:06:23.525Z,99.90
2019-04-11T00:08:56.390Z,99.90
2019-04-11T00:11:28.234Z,99.90
2019-04-11T00:13:59.893Z,99.90
2019-04-11T00:16:33.126Z,99.90
2019-04-11T00:19:05.242Z,99.90
2019-04-11T00:21:37.892Z,99.90
2019-04-11T00:24:10.417Z,99.90
2019-04-11T00:26:41.859Z,99.90
2019-04-11T00:29:14.633Z,99.90
2019-04-11T00:31:46.968Z,99.90
2019-04-11T00:34:21.105Z,99.90
2019-04-11T00:36:52.702Z,99.90
2019-04-11T00:39:24.049Z,99.90
2019-04-11T00:41:56.430Z,99.90
2019-04-11T00:44:27.929Z,99.90
2019-04-11T00:47:00.475Z,99.90
2019-04-11T00:49:32.586Z,99.90
2019-04-11T00:52:04.578Z,99.90
2019-04-11T00:54:35.957Z,99.90
2019-04-11T00:57:08.413Z,99.90
2019-04-11T00:59:40.626Z,99.90
2019-04-11T01:02:15.615Z,99.90
2019-04-11T01:04:47.235Z,99.90
2019-04-11T01:07:18.592Z,99.90
2019-04-11T01:09:50.695Z,99.90
2019-04-11T01:12:23.251Z,99.90
2019-04-11T01:14:55.282Z,99.90
2019-04-11T01:17:27.444Z,99.90
2019-04-11T01:20:00.087Z,99.90
2019-04-11T01:22:31.995Z,99.90
2019-04-11T01:25:04.266Z,99.90
2019-04-11T01:27:36.244Z,99.90
2019-04-11T01:30:13.698Z,99.90
2019-04-11T01:32:44.944Z,99.90
2019-04-11T01:35:17.279Z,99.90
2019-04-11T01:37:48.654Z,99.90
2019-04-11T01:40:21.280Z,99.90
2019-04-11T01:42:52.614Z,99.90
2019-04-11T01:45:25.546Z,99.90
2019-04-11T01:48:03.648Z,99.90
2019-04-11T01:50:36.927Z,99.90
2019-04-11T01:53:08.904Z,99.90
2019-04-11T01:55:40.841Z,99.90
2019-04-11T01:58:12.533Z,99.90
2019-04-11T02:01:15.188Z,99.90
2019-04-11T02:04:02.060Z,99.90
2019-04-11T02:06:34.116Z,99.90
2019-04-11T02:09:09.731Z,99.90
2019-04-11T02:11:41.528Z,99.90
2019-04-11T02:14:16.471Z,99.90
2019-04-11T02:16:47.455Z,99.90
2019-04-11T02:19:20.312Z,99.90
2019-04-11T02:21:53.765Z,99.90
2019-04-11T02:24:36.203Z,99.90
2019-04-11T02:27:21.110Z,99.90
2019-04-11T02:29:53.030Z,99.90
2019-04-11T02:32:27.036Z,99.90
2019-04-11T02:35:02.436Z,99.90
2019-04-11T02:37:34.308Z,99.90
2019-04-11T02:40:08.118Z,99.90
2019-04-11T02:42:41.267Z,99.90
2019-04-11T02:45:25.116Z,99.90
2019-04-11T02:47:48.449Z,99.90
2019-04-11T02:50:23.400Z,99.90
2019-04-11T02:52:52.877Z,99.90
2019-04-11T02:55:25.260Z,99.90
2019-04-11T02:57:57.646Z,99.90
2019-04-11T03:00:31.023Z,99.90
2019-04-11T03:03:04.116Z,99.90
2019-04-11T03:05:37.481Z,99.90
2019-04-11T03:08:12.156Z,99.90
2019-04-11T03:10:43.017Z,99.90
2019-04-11T03:13:16.752Z,99.90
2019-04-11T03:16:07.334Z,99.90
2019-04-11T03:18:40.935Z,99.90
2019-04-11T03:21:02.875Z,99.90
2019-04-11T03:23:31.069Z,99.90
2019-04-11T03:26:03.346Z,99.90
2019-04-11T03:28:38.316Z,99.90
2019-04-11T03:31:42.165Z,99.90
2019-04-11T03:34:25.262Z,99.90
2019-04-11T03:39:11.531Z,99.90
2019-04-11T03:41:40.025Z,99.90
2019-04-11T03:44:03.551Z,99.90
2019-04-11T03:46:48.272Z,99.90
2019-04-11T03:49:16.572Z,99.90
2019-04-11T03:51:36.509Z,99.90
2019-04-11T03:54:09.854Z,99.90
2019-04-11T03:56:43.304Z,99.90
2019-04-11T03:59:16.762Z,99.90
2019-04-11T04:01:50.753Z,99.90
2019-04-11T04:04:23.856Z,99.90
2019-04-11T04:06:57.859Z,99.90
2019-04-11T04:09:30.653Z,99.90
2019-04-11T04:12:02.934Z,99.90
2019-04-11T04:14:42.832Z,99.90
2019-04-11T04:17:25.348Z,99.90
2019-04-11T04:20:22.569Z,99.90
2019-04-11T04:23:14.439Z,99.90
2019-04-11T04:25:47.295Z,99.90
2019-04-11T04:28:19.204Z,99.90
2019-04-11T04:30:51.934Z,99.90
2019-04-11T04:33:26.659Z,99.90
2019-04-11T04:36:00.153Z,99.90
2019-04-11T04:38:33.781Z,99.90
2019-04-11T04:41:20.043Z,99.90
2019-04-11T04:43:41.409Z,99.90
2019-04-11T04:46:29.771Z,99.90
2019-04-11T04:48:47.884Z,99.90
2019-04-11T04:51:20.753Z,99.90
2019-04-11T04:53:53.096Z,99.90
2019-04-11T04:56:31.076Z,99.90
2019-04-11T04:58:59.867Z,99.90
2019-04-11T05:01:31.690Z,99.90
2019-04-11T05:04:04.772Z,99.90
2019-04-11T05:06:36.484Z,99.90
2019-04-11T05:09:08.721Z,99.90
2019-04-11T05:11:40.270Z,99.90
2019-04-11T05:14:12.653Z,99.90
2019-04-11T05:16:44.283Z,99.90
2019-04-11T05:19:16.981Z,99.90
2019-04-11T05:21:49.817Z,99.90
2019-04-11T05:24:21.333Z,99.90
2019-04-11T05:26:53.039Z,99.90
2019-04-11T05:29:25.007Z,99.90
2019-04-11T05:31:56.767Z,99.90
2019-04-11T05:34:28.941Z,99.90
2019-04-11T05:37:00.418Z,99.90
2019-04-11T05:39:31.945Z,99.90
2019-04-11T05:42:03.579Z,99.90
2019-04-11T05:44:37.435Z,99.90
2019-04-11T05:47:09.023Z,99.90
2019-04-11T05:49:52.700Z,99.90
2019-04-11T05:52:24.139Z,99.90
2019-04-11T05:54:58.721Z,99.90
2019-04-11T05:57:35.297Z,99.90
2019-04-11T06:00:05.557Z,99.90
2019-04-11T06:02:41.456Z,99.90
2019-04-11T06:05:36.033Z,99.90
2019-04-11T06:08:12.548Z,99.90
2019-04-11T06:11:14.490Z,99.90
2019-04-11T06:14:05.764Z,99.90
2019-04-11T06:16:43.597Z,99.90
2019-04-11T06:19:28.698Z,99.90
2019-04-11T06:22:06.648Z,99.90
2019-04-11T06:24:58.664Z,99.90
2019-04-11T06:27:39.038Z,99.90
2019-04-11T06:30:50.728Z,99.90
2019-04-11T06:33:26.755Z,99.90
2019-04-11T06:36:26.499Z,99.90
2019-04-11T06:39:29.468Z,99.90
2019-04-11T06:42:19.899Z,99.90
2019-04-11T06:45:09.643Z,99.90
2019-04-11T06:48:18.729Z,99.90
2019-04-11T06:50:55.613Z,99.90
2019-04-11T06:53:34.186Z,99.90
2019-04-11T06:56:32.802Z,99.90
2019-04-11T06:59:08.010Z,99.90
2019-04-11T07:01:42.629Z,99.90
2019-04-11T07:04:19.766Z,99.90
2019-04-11T07:06:53.724Z,99.90
2019-04-11T07:09:46.914Z,99.90
2019-04-11T07:12:22.732Z,99.90
2019-04-11T07:15:16.564Z,99.90
2019-04-11T07:18:07.472Z,99.90
2019-04-11T07:21:10.622Z,99.90
2019-04-11T07:23:59.898Z,99.90
2019-04-11T07:26:43.821Z,99.90
2019-04-11T07:29:33.558Z,99.90
2019-04-11T07:32:15.982Z,99.90
2019-04-11T07:35:04.892Z,99.90
2019-04-11T07:37:40.779Z,99.90
2019-04-11T07:40:32.839Z,99.90
2019-04-11T07:43:19.115Z,99.90
2019-04-11T07:46:25.547Z,99.90
2019-04-11T07:49:03.757Z,99.90
2019-04-11T07:51:54.376Z,99.90
2019-04-11T07:54:28.082Z,99.90
2019-04-11T07:57:13.287Z,99.90
2019-04-11T08:00:12.798Z,99.90
2019-04-11T08:03:09.967Z,99.90
2019-04-11T08:05:56.598Z,99.90
2019-04-11T08:08:34.994Z,99.90
2019-04-11T08:11:13.629Z,99.90
2019-04-11T08:14:10.497Z,99.90
2019-04-11T08:17:00.037Z,99.90
2019-04-11T08:19:51.261Z,99.90
2019-04-11T08:22:49.618Z,99.90
2019-04-11T08:25:52.045Z,99.90
2019-04-11T08:28:24.840Z,99.90
2019-04-11T08:31:05.450Z,99.90
2019-04-11T08:33:38.306Z,99.90
2019-04-11T08:36:29.564Z,99.90
2019-04-11T08:39:04.877Z,99.90
2019-04-11T08:41:47.598Z,99.90
2019-04-11T08:44:23.801Z,99.90
2019-04-11T08:47:02.930Z,99.90
2019-04-11T08:49:54.326Z,99.90
2019-04-11T08:52:50.323Z,99.90
2019-04-11T08:55:24.814Z,99.90
2019-04-11T08:58:00.905Z,99.90
2019-04-11T09:00:42.849Z,99.90
2019-04-11T09:03:59.298Z,99.90
2019-04-11T09:06:20.902Z,99.90
2019-04-11T09:09:11.162Z,99.90
2019-04-11T09:11:46.980Z,99.90
2019-04-11T09:14:40.002Z,99.90
2019-04-11T09:17:14.367Z,99.90
2019-04-11T09:20:05.347Z,99.90
2019-04-11T09:22:39.867Z,99.90
2019-04-11T09:25:43.445Z,99.90
2019-04-11T09:28:20.002Z,99.90
2019-04-11T09:31:12.199Z,99.90
2019-04-11T09:34:03.859Z,99.90
2019-04-11T09:36:55.435Z,99.90
2019-04-11T09:39:57.997Z,99.90
2019-04-11T09:42:40.159Z,99.90
2019-04-11T09:45:33.334Z,99.90
2019-04-11T09:48:44.156Z,99.90
2019-04-11T09:51:42.256Z,99.90
2019-04-11T09:54:48.514Z,99.90
2019-04-11T09:57:38.056Z,99.90
2019-04-11T10:00:20.716Z,99.90
2019-04-11T10:03:11.324Z,99.90
2019-04-11T10:05:51.538Z,99.90
2019-04-11T10:08:35.264Z,99.90
2019-04-11T10:11:26.109Z,99.90
2019-04-11T10:14:07.347Z,99.90
2019-04-11T10:16:58.184Z,99.90
2019-04-11T10:19:36.066Z,99.90
2019-04-11T10:22:25.120Z,99.90
2019-04-11T10:25:28.837Z,99.90
2019-04-11T10:28:29.702Z,99.90
2019-04-11T10:31:22.196Z,99.90
2019-04-11T10:34:11.254Z,99.90
2019-04-11T10:36:52.183Z,99.90
2019-04-11T10:39:41.859Z,99.90
2019-04-11T10:42:15.694Z,99.90
2019-04-11T10:45:25.049Z,99.90
2019-04-11T10:48:01.216Z,99.90
2019-04-11T10:51:00.399Z,99.90
2019-04-11T10:53:33.297Z,99.90
2019-04-11T10:56:30.646Z,99.90
2019-04-11T10:59:03.581Z,99.90
2019-04-11T11:01:53.088Z,99.90
2019-04-11T11:04:27.619Z,99.90
2019-04-11T11:07:04.358Z,99.90
2019-04-11T11:10:00.839Z,99.90
2019-04-11T11:12:53.988Z,99.90
2019-04-11T11:15:27.992Z,99.90
2019-04-11T11:19:16.769Z,99.90
2019-04-11T11:21:05.689Z,99.90
2019-04-11T11:24:05.385Z,99.90
2019-04-11T11:26:39.030Z,99.90
2019-04-11T11:29:47.631Z,99.90
2019-04-11T11:32:32.099Z,99.90
2019-04-11T11:35:37.577Z,99.90
2019-04-11T11:38:12.050Z,99.90
2019-04-11T11:41:05.907Z,99.90
2019-04-11T11:43:37.748Z,99.90
2019-04-11T11:46:46.629Z,99.90
2019-04-11T11:49:37.526Z,99.90
2019-04-11T11:52:15.165Z,99.90
2019-04-11T11:54:50.074Z,99.90
2019-04-11T11:57:30.869Z,99.90
2019-04-11T12:00:13.380Z,99.90
2019-04-11T12:02:55.509Z,99.90
2019-04-11T12:05:34.492Z,99.90
2019-04-11T12:08:20.343Z,99.90
2019-04-11T12:11:03.975Z,99.90
2019-04-11T12:13:53.729Z,99.90
2019-04-11T12:16:34.581Z,99.90
2019-04-11T12:19:24.851Z,99.90
2019-04-11T12:21:59.868Z,99.90
2019-04-11T12:24:34.736Z,99.90
2019-04-11T12:27:26.841Z,99.90
2019-04-11T12:30:21.019Z,99.90
2019-04-11T12:33:15.945Z,99.90
2019-04-11T12:36:07.280Z,99.90
2019-04-11T12:38:58.318Z,99.90
2019-04-11T12:41:49.019Z,99.90
2019-04-11T12:44:51.443Z,99.90
2019-04-11T12:47:28.604Z,99.90
2019-04-11T12:50:18.953Z,99.90
2019-04-11T12:53:21.571Z,99.90
2019-04-11T12:56:10.472Z,99.90
2019-04-11T12:59:12.737Z,99.90
2019-04-11T13:02:02.036Z,99.90
2019-04-11T13:04:39.904Z,98.70
2019-04-11T13:07:33.399Z,99.90
2019-04-11T13:10:32.190Z,99.90
2019-04-11T13:13:28.659Z,99.90
2019-04-11T13:16:12.238Z,99.90
2019-04-11T13:19:03.831Z,99.90
2019-04-11T13:21:55.561Z,99.90
2019-04-11T13:24:45.894Z,99.90
2019-04-11T13:27:21.831Z,99.90
2019-04-11T13:30:18.136Z,97.10
2019-04-11T13:32:54.524Z,94.80
2019-04-11T13:35:50.474Z,97.80
2019-04-11T13:38:31.713Z,98.60
2019-04-11T13:41:27.994Z,95.40
2019-04-11T13:44:34.687Z,98.50
2019-04-11T13:47:23.862Z,99.90
2019-04-11T13:49:57.696Z,95.70
2019-04-11T13:53:02.535Z,95.50
2019-04-11T13:55:36.516Z,97.90
2019-04-11T13:58:25.606Z,94.70
2019-04-11T14:01:00.865Z,95.80
2019-04-11T14:04:00.215Z,94.90
2019-04-11T14:06:42.061Z,96.70
2019-04-11T14:09:38.194Z,95.80
2019-04-11T14:12:14.753Z,94.50
2019-04-11T14:14:58.226Z,94.30
2019-04-11T14:17:48.450Z,94.10
2019-04-11T14:20:42.762Z,97.50
2019-04-11T14:23:35.278Z,97.70
2019-04-11T14:26:24.711Z,96.80
2019-04-11T14:29:00.051Z,96.10
2019-04-11T14:31:48.056Z,96.20
2019-04-11T14:34:57.589Z,95.60
2019-04-11T14:37:41.332Z,99.00
2019-04-11T14:40:19.979Z,95.90
2019-04-11T14:43:09.433Z,98.50
2019-04-11T14:46:07.504Z,95.60
2019-04-11T14:48:42.542Z,95.70
2019-04-11T14:51:28.210Z,97.20
2019-04-11T14:54:11.996Z,98.90
2019-04-11T14:56:52.176Z,96.20
2019-04-11T14:59:26.004Z,94.50
2019-04-11T15:02:05.076Z,97.30
2019-04-11T15:04:54.268Z,96.90
2019-04-11T15:07:25.778Z,98.20
2019-04-11T15:10:11.386Z,97.90
2019-04-11T15:12:45.733Z,97.40
2019-04-11T15:15:35.326Z,96.40
2019-04-11T15:18:06.813Z,97.00
2019-04-11T15:21:00.202Z,95.30
2019-04-11T15:23:38.971Z,93.30
2019-04-11T15:26:32.396Z,97.80
2019-04-11T15:29:18.832Z,99.90
2019-04-11T15:32:13.284Z,97.40
2019-04-11T15:34:54.966Z,99.90
2019-04-11T15:37:47.091Z,99.90
2019-04-11T15:40:43.321Z,99.90
2019-04-11T15:43:42.602Z,99.90
2019-04-11T15:46:24.234Z,99.90
2019-04-11T15:49:20.419Z,99.90
2019-04-11T15:52:00.784Z,99.90
2019-04-11T15:54:54.353Z,99.90
2019-04-11T15:57:43.034Z,99.90
2019-04-11T16:00:36.891Z,99.90
2019-04-11T16:03:10.262Z,99.90
2019-04-11T16:06:01.630Z,99.90
2019-04-11T16:08:43.428Z,99.90
2019-04-11T16:11:32.882Z,99.90
2019-04-11T16:14:06.793Z,99.90
2019-04-11T16:16:47.197Z,99.90
2019-04-11T16:19:37.491Z,99.90
2019-04-11T16:22:26.749Z,99.90
2019-04-11T16:25:00.158Z,99.90
2019-04-11T16:27:53.607Z,99.90
2019-04-11T16:30:25.289Z,99.90
2019-04-11T16:33:07.961Z,99.90
2019-04-11T16:35:48.817Z,99.90
2019-04-11T16:38:21.989Z,99.90
2019-04-11T16:41:11.022Z,99.90
2019-04-11T16:43:44.412Z,99.90
2019-04-11T16:46:50.216Z,99.90
2019-04-11T16:49:23.703Z,99.90
2019-04-11T16:51:55.779Z,99.90
2019-04-11T16:54:29.265Z,99.90
2019-04-11T16:57:01.040Z,99.90
2019-04-11T16:59:32.335Z,99.90
2019-04-11T17:02:05.289Z,99.90
2019-04-11T17:04:38.355Z,99.90
2019-04-11T17:07:37.617Z,99.90
2019-04-11T17:10:10.002Z,99.90
2019-04-11T17:12:41.429Z,99.90
2019-04-11T17:15:12.920Z,99.90
2019-04-11T17:17:45.917Z,99.90
2019-04-11T17:20:17.194Z,99.90
2019-04-11T17:22:48.843Z,99.90
2019-04-11T17:25:20.804Z,99.90
2019-04-11T17:27:53.281Z,99.90
2019-04-11T17:30:25.268Z,99.90
2019-04-11T17:32:56.680Z,99.90
2019-04-11T17:35:31.569Z,99.90
2019-04-11T17:38:04.068Z,99.90
2019-04-11T17:40:35.040Z,99.90
2019-04-11T17:43:07.496Z,99.90
2019-04-11T17:45:40.045Z,99.90
2019-04-11T17:48:12.757Z,99.90
2019-04-11T17:50:44.927Z,99.90
2019-04-11T17:53:16.573Z,99.90
2019-04-11T17:55:48.101Z,99.90
2019-04-11T17:58:19.453Z,99.90
2019-04-11T18:00:56.877Z,99.90
2019-04-11T18:03:28.909Z,99.90
2019-04-11T18:06:00.415Z,99.90
2019-04-11T18:08:31.790Z,99.90
2019-04-11T18:11:03.731Z,99.90
2019-04-11T18:13:36.851Z,99.90
2019-04-11T18:16:08.262Z,99.90
2019-04-11T18:18:39.608Z,99.90
2019-04-11T18:21:11.478Z,99.90
2019-04-11T18:23:43.005Z,99.90
2019-04-11T18:26:15.327Z,99.90
2019-04-11T18:28:46.679Z,99.90
2019-04-11T18:31:19.879Z,99.90
2019-04-11T18:33:52.481Z,99.90
2019-04-11T18:36:24.222Z,99.90
2019-04-11T18:38:55.552Z,99.90
2019-04-11T18:41:27.175Z,99.90
2019-04-11T18:43:58.845Z,99.90
2019-04-11T18:46:31.589Z,99.90
2019-04-11T18:49:03.225Z,99.90
2019-04-11T18:51:35.868Z,99.90
2019-04-11T18:54:07.841Z,99.90
2019-04-11T18:56:39.218Z,99.90
2019-04-11T18:59:11.920Z,99.90
2019-04-11T19:01:43.638Z,99.90
2019-04-11T19:04:15.173Z,99.90
2019-04-11T19:06:46.542Z,99.90
2019-04-11T19:09:17.991Z,99.90
2019-04-11T19:11:51.489Z,99.90
2019-04-11T19:14:24.761Z,99.90
2019-04-11T19:16:56.688Z,99.90
2019-04-11T19:19:28.750Z,99.90
2019-04-11T19:22:00.182Z,99.90
2019-04-11T19:24:35.625Z,99.90
2019-04-11T19:27:06.518Z,99.90
2019-04-11T19:29:38.960Z,99.90
2019-04-11T19:32:10.467Z,99.90
2019-04-11T19:34:41.919Z,99.90
2019-04-11T19:37:13.260Z,99.90
2019-04-11T19:39:45.342Z,99.90
2019-04-11T19:42:19.803Z,99.90
2019-04-11T19:44:51.491Z,99.90
2019-04-11T19:47:22.981Z,99.90
2019-04-11T19:49:54.244Z,99.90
2019-04-11T19:52:25.651Z,99.90
2019-04-11T19:54:58.483Z,99.90
2019-04-11T19:57:30.220Z,99.90
2019-04-11T20:00:01.968Z,99.90
2019-04-11T20:02:33.528Z,99.90
2019-04-11T20:05:04.981Z,99.90
2019-04-11T20:07:36.377Z,99.90
2019-04-11T20:10:08.179Z,99.90
2019-04-11T20:12:39.700Z,99.90
2019-04-11T20:15:11.401Z,99.90
2019-04-11T20:17:44.467Z,99.90
2019-04-11T20:20:17.840Z,99.90
2019-04-11T20:22:58.898Z,99.90
2019-04-11T20:25:23.805Z,99.90
2019-04-11T20:27:57.471Z,99.90
2019-04-11T20:30:30.733Z,99.90
2019-04-11T20:33:03.102Z,99.90
2019-04-11T20:35:35.203Z,99.90
2019-04-11T20:38:06.796Z,99.90
2019-04-11T20:40:38.179Z,99.90
2019-04-11T20:43:10.215Z,99.90
2019-04-11T20:45:42.437Z,99.90
2019-04-11T20:48:14.224Z,99.90
2019-04-11T20:50:46.233Z,99.90
2019-04-11T20:53:18.012Z,99.90
2019-04-11T20:55:49.815Z,99.90
2019-04-11T20:58:27.185Z,99.90
2019-04-11T21:00:56.033Z,99.90
2019-04-11T21:03:29.882Z,99.90
2019-04-11T21:06:01.714Z,99.90
2019-04-11T21:08:36.544Z,99.90
2019-04-11T21:11:06.984Z,99.90
2019-04-11T21:13:38.970Z,99.90
2019-04-11T21:16:10.741Z,99.90
2019-04-11T21:18:42.513Z,99.90
2019-04-11T21:21:15.243Z,99.90
2019-04-11T21:23:46.859Z,99.90
2019-04-11T21:26:19.381Z,99.90
2019-04-11T21:28:50.832Z,99.90
2019-04-11T21:31:22.321Z,99.90
2019-04-11T21:33:54.981Z,99.90
2019-04-11T21:36:27.031Z,99.90
2019-04-11T21:38:58.464Z,99.90
2019-04-11T21:41:29.770Z,99.90
2019-04-11T21:44:01.572Z,99.90
2019-04-11T21:46:38.076Z,99.90
2019-04-11T21:49:10.171Z,99.90
2019-04-11T21:51:42.570Z,99.90
2019-04-11T21:54:14.983Z,99.90
2019-04-11T21:56:49.694Z,99.90
2019-04-11T21:59:23.828Z,99.90
2019-04-11T22:01:55.137Z,99.90
2019-04-11T22:04:28.573Z,99.90
2019-04-11T22:07:01.501Z,99.90
2019-04-11T22:09:36.930Z,99.90
2019-04-11T22:12:09.044Z,99.90
2019-04-11T22:14:42.032Z,99.90
2019-04-11T22:17:15.935Z,99.90
2019-04-11T22:19:47.795Z,99.90
2019-04-11T22:22:19.262Z,99.90
2019-04-11T22:24:51.748Z,99.90
2019-04-11T22:27:23.470Z,99.90
2019-04-11T22:29:55.308Z,99.90
2019-04-11T22:32:27.433Z,99.90
2019-04-11T22:34:59.908Z,99.90
2019-04-11T22:37:33.494Z,99.90
2019-04-11T22:40:05.614Z,99.90
2019-04-11T22:42:37.377Z,99.90
2019-04-11T22:45:09.785Z,99.90
2019-04-11T22:47:41.035Z,99.90
2019-04-11T22:50:12.639Z,99.90
2019-04-11T22:52:44.611Z,99.90
2019-04-11T22:55:15.955Z,99.90
2019-04-11T22:57:48.401Z,99.90
2019-04-11T23:00:21.269Z,99.90
2019-04-11T23:03:06.653Z,99.90
2019-04-11T23:05:38.255Z,99.90
2019-04-11T23:08:10.606Z,99.90
2019-04-11T23:10:42.014Z,99.90
2019-04-11T23:13:15.678Z,99.90
2019-04-11T23:15:46.596Z,99.90
2019-04-11T23:18:17.850Z,99.90
2019-04-11T23:20:49.913Z,99.90
2019-04-11T23:23:21.537Z,99.90
2019-04-11T23:25:52.850Z,99.90
2019-04-11T23:28:24.363Z,99.90
2019-04-11T23:30:56.201Z,99.90
2019-04-11T23:33:27.757Z,99.90
2019-04-11T23:35:59.159Z,99.90
2019-04-11T23:38:30.969Z,99.90
2019-04-11T23:41:02.711Z,99.90
2019-04-11T23:43:35.070Z,99.90
2019-04-11T23:46:06.401Z,99.90
2019-04-11T23:48:38.170Z,99.90
2019-04-11T23:51:09.577Z,99.90
2019-04-11T23:53:40.858Z,99.90
2019-04-11T23:56:12.281Z,99.90
2019-04-11T23:58:45.821Z,99.90
